Time;durP1;ratioP1;P1;durP2;ratioP2;P2;SDS_P1;SDS_P2;PMS_P1;PMS_P2;Temp;Humidity;BMP_temperature;BMP_pressure;BME280_temperature;BME280_humidity;BME280_pressure;Samples;Min_cycle;Max_cycle;Signal;HPM_P1;HPM_P2
2021/08/17 00:01:36;;;;;;;5.80;2.63;;;;;;;;;;5034865;28;20079;-75
2021/08/17 00:04:01;;;;;;;5.78;2.85;;;;;;;;;;5052927;28;20509;-75
2021/08/17 00:06:26;;;;;;;6.25;2.90;;;;;;;;;;5052902;28;20056;-75
2021/08/17 00:08:52;;;;;;;6.97;2.40;;;;;;;;;;5052590;28;20061;-75
2021/08/17 00:11:17;;;;;;;8.13;2.78;;;;;;;;;;5052774;28;20031;-75
2021/08/17 00:13:43;;;;;;;4.88;2.50;;;;;;;;;;5052337;28;20103;-75
2021/08/17 00:16:08;;;;;;;7.50;2.70;;;;;;;;;;5052611;28;20029;-76
2021/08/17 00:18:34;;;;;;;11.30;2.60;;;;;;;;;;5052679;28;20046;-75
2021/08/17 00:20:59;;;;;;;7.15;2.22;;;;;;;;;;5054087;28;20036;-76
2021/08/17 00:23:24;;;;;;;7.93;2.55;;;;;;;;;;5056445;28;20033;-75
2021/08/17 00:25:50;;;;;;;7.65;2.75;;;;;;;;;;5056016;28;20017;-75
2021/08/17 00:28:15;;;;;;;7.10;2.85;;;;;;;;;;5056123;28;20473;-75
2021/08/17 00:30:40;;;;;;;14.35;3.30;;;;;;;;;;5055770;28;20049;-75
2021/08/17 00:33:05;;;;;;;6.38;2.13;;;;;;;;;;5056124;28;20359;-75
2021/08/17 00:35:31;;;;;;;5.78;2.70;;;;;;;;;;5056146;28;20112;-76
2021/08/17 00:37:56;;;;;;;5.28;2.15;;;;;;;;;;5056057;28;20167;-76
2021/08/17 00:40:21;;;;;;;7.95;2.63;;;;;;;;;;5055716;28;20025;-75
2021/08/17 00:42:47;;;;;;;4.57;2.50;;;;;;;;;;5055483;28;20032;-75
2021/08/17 00:45:22;;;;;;;7.07;2.80;;;;;;;;;;5055856;28;20059;-75
2021/08/17 00:47:48;;;;;;;;;;;;;;;;;;5036692;28;20032;-75
2021/08/17 00:50:13;;;;;;;5.37;2.50;;;;;;;;;;5040984;28;20324;-76
2021/08/17 00:52:39;;;;;;;6.05;2.70;;;;;;;;;;5047047;28;20266;-74
2021/08/17 00:55:05;;;;;;;11.30;3.05;;;;;;;;;;5035994;28;20036;-73
2021/08/17 00:57:30;;;;;;;8.77;2.70;;;;;;;;;;5051070;28;20029;-76
2021/08/17 00:59:56;;;;;;;7.43;2.90;;;;;;;;;;5055678;28;20104;-75
2021/08/17 01:02:21;;;;;;;5.95;2.78;;;;;;;;;;5055152;28;20086;-75
2021/08/17 01:04:46;;;;;;;8.32;3.05;;;;;;;;;;5054744;28;20028;-75
2021/08/17 01:07:12;;;;;;;5.70;2.65;;;;;;;;;;5055719;28;20029;-75
2021/08/17 01:09:38;;;;;;;7.20;2.60;;;;;;;;;;5055816;28;20029;-76
2021/08/17 01:12:03;;;;;;;7.00;2.97;;;;;;;;;;5055235;28;20032;-75
2021/08/17 01:14:29;;;;;;;9.35;2.50;;;;;;;;;;5055598;28;20041;-76
2021/08/17 01:16:55;;;;;;;5.97;2.45;;;;;;;;;;5055699;28;20082;-75
2021/08/17 01:19:21;;;;;;;7.80;2.90;;;;;;;;;;5055408;28;20021;-75
2021/08/17 01:21:47;;;;;;;8.55;2.97;;;;;;;;;;5054605;28;20518;-75
2021/08/17 01:24:12;;;;;;;7.45;2.92;;;;;;;;;;5055392;28;20029;-75
2021/08/17 01:26:38;;;;;;;6.25;3.08;;;;;;;;;;5055055;28;20079;-75
2021/08/17 01:29:03;;;;;;;6.68;3.13;;;;;;;;;;5054420;28;20112;-76
2021/08/17 01:31:29;;;;;;;9.32;2.90;;;;;;;;;;5054433;28;20052;-76
2021/08/17 01:33:54;;;;;;;7.78;3.10;;;;;;;;;;5054124;28;20358;-76
2021/08/17 01:36:19;;;;;;;7.65;2.80;;;;;;;;;;5054859;28;20454;-75
2021/08/17 01:38:48;;;;;;;8.50;2.85;;;;;;;;;;5054910;28;20025;-75
2021/08/17 01:41:14;;;;;;;15.00;3.78;;;;;;;;;;5036794;28;20431;-75
2021/08/17 01:43:39;;;;;;;8.55;2.50;;;;;;;;;;5055145;28;20040;-75
2021/08/17 01:46:05;;;;;;;8.50;2.60;;;;;;;;;;5054530;28;20021;-75
2021/08/17 01:48:31;;;;;;;4.75;2.97;;;;;;;;;;5054464;28;20029;-75
2021/08/17 01:50:56;;;;;;;8.30;2.80;;;;;;;;;;5054667;28;20158;-75
2021/08/17 01:53:29;;;;;;;4.65;2.50;;;;;;;;;;5054290;28;20075;-75
2021/08/17 01:55:55;;;;;;;6.22;2.97;;;;;;;;;;5054822;28;20029;-75
2021/08/17 01:58:21;;;;;;;14.35;3.70;;;;;;;;;;5053951;28;20163;-75
2021/08/17 02:00:47;;;;;;;7.18;2.80;;;;;;;;;;5053880;28;20028;-75
2021/08/17 02:03:12;;;;;;;7.25;2.85;;;;;;;;;;5054158;28;20064;-75
2021/08/17 02:05:37;;;;;;;6.55;2.70;;;;;;;;;;5053899;28;20028;-75
2021/08/17 02:08:03;;;;;;;7.60;3.08;;;;;;;;;;5054366;28;20032;-76
2021/08/17 02:10:29;;;;;;;5.50;2.50;;;;;;;;;;5054364;28;20036;-75
2021/08/17 02:12:54;;;;;;;7.70;2.97;;;;;;;;;;5054000;28;20025;-76
2021/08/17 02:15:19;;;;;;;7.13;3.03;;;;;;;;;;5054427;28;20115;-76
2021/08/17 02:17:45;;;;;;;4.05;2.63;;;;;;;;;;5054294;28;20086;-75
2021/08/17 02:20:10;;;;;;;10.82;2.80;;;;;;;;;;5054344;28;20041;-75
2021/08/17 02:22:36;;;;;;;6.25;2.83;;;;;;;;;;5053631;28;20037;-75
2021/08/17 02:25:01;;;;;;;6.43;3.08;;;;;;;;;;5054046;28;20024;-75
2021/08/17 02:27:26;;;;;;;6.35;3.17;;;;;;;;;;5053353;28;20068;-75
2021/08/17 02:29:52;;;;;;;8.98;3.38;;;;;;;;;;5053807;28;20029;-75
2021/08/17 02:32:17;;;;;;;9.73;3.60;;;;;;;;;;5053856;28;20045;-75
2021/08/17 02:34:42;;;;;;;5.85;3.10;;;;;;;;;;5053459;28;20033;-75
2021/08/17 02:37:07;;;;;;;8.98;3.30;;;;;;;;;;5053479;28;20025;-76
2021/08/17 02:39:33;;;;;;;7.57;3.28;;;;;;;;;;5053990;28;20095;-75
2021/08/17 02:41:58;;;;;;;9.52;3.10;;;;;;;;;;5053510;28;20033;-75
2021/08/17 02:44:23;;;;;;;7.57;3.13;;;;;;;;;;5053084;28;20048;-75
2021/08/17 02:46:48;;;;;;;9.20;3.50;;;;;;;;;;5053877;28;20079;-75
2021/08/17 02:49:14;;;;;;;13.75;3.42;;;;;;;;;;5053319;28;20217;-75
2021/08/17 02:51:39;;;;;;;6.80;3.65;;;;;;;;;;5053426;28;20033;-75
2021/08/17 02:54:04;;;;;;;8.18;3.30;;;;;;;;;;5053712;28;20028;-75
2021/08/17 02:56:30;;;;;;;8.63;3.50;;;;;;;;;;5053739;28;20032;-75
2021/08/17 02:58:55;;;;;;;8.45;3.47;;;;;;;;;;5052907;28;20394;-76
2021/08/17 03:01:20;;;;;;;5.85;3.10;;;;;;;;;;5053360;28;20041;-76
2021/08/17 03:03:46;;;;;;;8.18;3.80;;;;;;;;;;5053108;28;20037;-75
2021/08/17 03:06:11;;;;;;;9.32;3.47;;;;;;;;;;5053349;28;20040;-75
2021/08/17 03:08:36;;;;;;;7.80;3.65;;;;;;;;;;5053903;28;20099;-75
2021/08/17 03:11:04;;;;;;;9.35;3.22;;;;;;;;;;5053518;28;20116;-75
2021/08/17 03:13:29;;;;;;;9.10;3.50;;;;;;;;;;5053012;28;20465;-75
2021/08/17 03:15:54;;;;;;;6.90;3.35;;;;;;;;;;5053533;28;20017;-75
2021/08/17 03:18:20;;;;;;;7.30;3.28;;;;;;;;;;5052857;28;20095;-75
2021/08/17 03:20:45;;;;;;;10.75;3.20;;;;;;;;;;5053492;28;20039;-75
2021/08/17 03:23:13;;;;;;;14.20;3.50;;;;;;;;;;5052713;28;20033;-75
2021/08/17 03:25:39;;;;;;;14.88;5.65;;;;;;;;;;5053422;28;20028;-75
2021/08/17 03:28:04;;;;;;;12.00;4.22;;;;;;;;;;5052687;28;20465;-77
2021/08/17 03:30:30;;;;;;;9.23;3.28;;;;;;;;;;5052967;28;20405;-75
2021/08/17 03:32:55;;;;;;;10.52;5.07;;;;;;;;;;5052557;28;20116;-75
2021/08/17 03:35:20;;;;;;;6.82;3.47;;;;;;;;;;5053003;28;20025;-75
2021/08/17 03:37:46;;;;;;;8.48;3.60;;;;;;;;;;5052623;28;20029;-75
2021/08/17 03:40:12;;;;;;;6.13;3.20;;;;;;;;;;5053052;28;20381;-75
2021/08/17 03:42:38;;;;;;;8.70;3.65;;;;;;;;;;5052864;28;20072;-75
2021/08/17 03:45:08;;;;;;;11.02;3.20;;;;;;;;;;5052907;28;20414;-76
2021/08/17 03:47:33;;;;;;;5.60;2.65;;;;;;;;;;5053247;28;20377;-75
2021/08/17 03:49:59;;;;;;;6.15;3.22;;;;;;;;;;5053130;28;20048;-75
2021/08/17 03:52:24;;;;;;;6.43;2.67;;;;;;;;;;5052536;28;20028;-75
2021/08/17 03:54:49;;;;;;;9.23;3.28;;;;;;;;;;5052807;28;20036;-75
2021/08/17 03:57:14;;;;;;;7.35;2.92;;;;;;;;;;5055791;28;20121;-75
2021/08/17 03:59:41;;;;;;;10.23;2.90;;;;;;;;;;5057085;28;20040;-75
2021/08/17 04:02:06;;;;;;;8.68;3.17;;;;;;;;;;5056144;28;20515;-76
2021/08/17 04:04:31;;;;;;;7.07;2.80;;;;;;;;;;5056914;28;20064;-75
2021/08/17 04:06:57;;;;;;;5.00;3.00;;;;;;;;;;5056717;28;20024;-75
2021/08/17 04:09:22;;;;;;;9.52;3.70;;;;;;;;;;5056049;28;20025;-75
2021/08/17 04:11:47;;;;;;;16.08;4.38;;;;;;;;;;5056560;28;20059;-76
2021/08/17 04:14:12;;;;;;;15.85;6.03;;;;;;;;;;5056227;28;20045;-76
2021/08/17 04:16:38;;;;;;;8.85;3.97;;;;;;;;;;5056675;28;20029;-75
2021/08/17 04:19:03;;;;;;;10.52;4.75;;;;;;;;;;5056246;28;20029;-75
2021/08/17 04:21:28;;;;;;;5.82;3.42;;;;;;;;;;5056052;28;20091;-75
2021/08/17 04:23:56;;;;;;;6.28;3.67;;;;;;;;;;5056356;28;20033;-75
2021/08/17 04:26:21;;;;;;;6.60;3.55;;;;;;;;;;5056226;28;20068;-75
2021/08/17 04:28:47;;;;;;;8.23;4.18;;;;;;;;;;5055622;28;20159;-75
2021/08/17 04:31:12;;;;;;;11.95;3.92;;;;;;;;;;5055687;28;20072;-75
2021/08/17 04:33:37;;;;;;;9.18;3.78;;;;;;;;;;5056004;28;20108;-75
2021/08/17 04:36:03;;;;;;;8.77;3.45;;;;;;;;;;5056045;28;20025;-75
2021/08/17 04:38:28;;;;;;;8.98;3.58;;;;;;;;;;5055602;28;20037;-76
2021/08/17 04:40:53;;;;;;;7.75;3.78;;;;;;;;;;5055696;28;20037;-76
2021/08/17 04:43:18;;;;;;;11.52;4.50;;;;;;;;;;5056275;28;20122;-75
2021/08/17 04:45:44;;;;;;;11.98;3.88;;;;;;;;;;5055931;28;20048;-75
2021/08/17 04:48:09;;;;;;;16.55;5.95;;;;;;;;;;5055889;28;20029;-75
2021/08/17 04:50:34;;;;;;;13.68;5.85;;;;;;;;;;5055968;28;20074;-76
2021/08/17 04:53:00;;;;;;;11.07;5.10;;;;;;;;;;5055723;28;20492;-75
2021/08/17 04:55:25;;;;;;;10.43;5.05;;;;;;;;;;5056009;28;20029;-75
2021/08/17 04:57:52;;;;;;;13.13;4.30;;;;;;;;;;5055798;28;20051;-75
2021/08/17 05:00:18;;;;;;;13.35;4.20;;;;;;;;;;5055059;28;20027;-75
2021/08/17 05:02:43;;;;;;;8.40;3.90;;;;;;;;;;5055769;28;20045;-75
2021/08/17 05:05:09;;;;;;;9.98;4.72;;;;;;;;;;5055713;28;20133;-76
2021/08/17 05:07:41;;;;;;;10.57;3.97;;;;;;;;;;5054596;28;20063;-75
2021/08/17 05:10:07;;;;;;;13.10;4.82;;;;;;;;;;5051882;28;20082;-75
2021/08/17 05:12:33;;;;;;;11.15;4.90;;;;;;;;;;5055736;28;20017;-75
2021/08/17 05:14:58;;;;;;;10.70;3.90;;;;;;;;;;5055619;28;20032;-75
2021/08/17 05:17:24;;;;;;;11.10;3.70;;;;;;;;;;5054875;28;20033;-76
2021/08/17 05:19:49;;;;;;;9.68;3.53;;;;;;;;;;5055388;28;20104;-76
2021/08/17 05:22:14;;;;;;;7.32;3.47;;;;;;;;;;5055190;28;20416;-75
2021/08/17 05:24:40;;;;;;;8.15;3.47;;;;;;;;;;5055220;28;20101;-75
2021/08/17 05:27:06;;;;;;;8.75;3.80;;;;;;;;;;5054807;28;20094;-75
2021/08/17 05:29:31;;;;;;;5.95;3.53;;;;;;;;;;5054900;28;20036;-76
2021/08/17 05:31:56;;;;;;;9.45;3.40;;;;;;;;;;5054439;28;20099;-75
2021/08/17 05:34:22;;;;;;;9.65;3.63;;;;;;;;;;5054468;28;20508;-75
2021/08/17 05:36:47;;;;;;;9.05;3.50;;;;;;;;;;5054434;28;20045;-75
2021/08/17 05:39:12;;;;;;;9.00;4.00;;;;;;;;;;5054326;28;20021;-76
2021/08/17 05:41:37;;;;;;;10.57;4.28;;;;;;;;;;5054618;28;20477;-77
2021/08/17 05:44:03;;;;;;;12.15;3.70;;;;;;;;;;5054821;28;20024;-75
2021/08/17 05:46:28;;;;;;;6.28;3.50;;;;;;;;;;5054364;28;20041;-76
2021/08/17 05:48:53;;;;;;;10.27;4.07;;;;;;;;;;5054526;28;20021;-75
2021/08/17 05:51:18;;;;;;;9.05;3.67;;;;;;;;;;5054465;28;20037;-75
2021/08/17 05:53:44;;;;;;;7.57;3.70;;;;;;;;;;5054862;28;20021;-75
2021/08/17 05:56:09;;;;;;;7.45;3.72;;;;;;;;;;5054766;28;20107;-75
2021/08/17 05:58:34;;;;;;;9.35;4.05;;;;;;;;;;5054574;28;20132;-75
2021/08/17 06:01:01;;;;;;;11.50;4.20;;;;;;;;;;5053975;28;20021;-75
2021/08/17 06:03:26;;;;;;;8.20;3.95;;;;;;;;;;5054673;28;20027;-75
2021/08/17 06:05:51;;;;;;;10.48;3.85;;;;;;;;;;5054789;28;20033;-75
2021/08/17 06:08:16;;;;;;;10.43;3.65;;;;;;;;;;5053921;28;20029;-75
2021/08/17 06:10:42;;;;;;;14.60;3.65;;;;;;;;;;5054416;28;20032;-76
2021/08/17 06:13:07;;;;;;;5.72;3.45;;;;;;;;;;5054304;28;20458;-75
2021/08/17 06:15:32;;;;;;;9.15;3.67;;;;;;;;;;5054145;28;20519;-75
2021/08/17 06:18:02;;;;;;;7.80;3.33;;;;;;;;;;5053413;28;20029;-75
2021/08/17 06:20:27;;;;;;;7.60;3.88;;;;;;;;;;5054195;28;20036;-75
2021/08/17 06:22:53;;;;;;;6.28;3.55;;;;;;;;;;5054437;28;20045;-76
2021/08/17 06:25:18;;;;;;;9.85;3.35;;;;;;;;;;5053789;28;20370;-76
2021/08/17 06:27:43;;;;;;;6.70;3.63;;;;;;;;;;5054298;28;20061;-76
2021/08/17 06:30:09;;;;;;;7.53;3.40;;;;;;;;;;5053968;28;20098;-75
2021/08/17 06:32:34;;;;;;;8.15;3.90;;;;;;;;;;5053667;28;20021;-75
2021/08/17 06:35:00;;;;;;;8.02;3.72;;;;;;;;;;5053243;28;20083;-76
2021/08/17 06:37:25;;;;;;;10.90;3.67;;;;;;;;;;5049678;28;20022;-75
2021/08/17 06:39:50;;;;;;;8.95;3.95;;;;;;;;;;5050447;28;20112;-76
2021/08/17 06:42:16;;;;;;;8.75;4.78;;;;;;;;;;5053620;28;20047;-75
2021/08/17 06:44:41;;;;;;;7.68;3.85;;;;;;;;;;5053972;28;20025;-76
2021/08/17 06:47:06;;;;;;;5.93;3.50;;;;;;;;;;5053425;28;20066;-75
2021/08/17 06:49:32;;;;;;;7.95;3.20;;;;;;;;;;5053150;28;20033;-75
2021/08/17 06:51:57;;;;;;;10.98;3.53;;;;;;;;;;5053078;28;20424;-79
2021/08/17 06:54:22;;;;;;;6.25;3.42;;;;;;;;;;5053149;28;20021;-78
2021/08/17 06:56:47;;;;;;;7.80;3.60;;;;;;;;;;5052929;28;20033;-76
2021/08/17 06:59:13;;;;;;;6.07;3.10;;;;;;;;;;5053727;28;20057;-76
2021/08/17 07:01:38;;;;;;;5.20;2.83;;;;;;;;;;5052548;28;20037;-76
2021/08/17 07:04:03;;;;;;;9.57;2.70;;;;;;;;;;5052719;28;20086;-76
2021/08/17 07:06:29;;;;;;;5.88;2.72;;;;;;;;;;5052778;28;20033;-76
2021/08/17 07:08:55;;;;;;;6.45;2.67;;;;;;;;;;5052697;28;20024;-76
2021/08/17 07:11:21;;;;;;;5.40;2.20;;;;;;;;;;5053473;28;20107;-75
2021/08/17 07:13:46;;;;;;;4.30;2.17;;;;;;;;;;5053417;28;20071;-75
2021/08/17 07:16:11;;;;;;;5.40;2.58;;;;;;;;;;5050874;28;20032;-79
2021/08/17 07:18:37;;;;;;;4.43;2.00;;;;;;;;;;5049895;28;20032;-76
2021/08/17 07:21:02;;;;;;;5.68;2.40;;;;;;;;;;5053091;28;20362;-76
2021/08/17 07:23:27;;;;;;;8.48;2.83;;;;;;;;;;5052841;28;20048;-76
2021/08/17 07:25:53;;;;;;;2.55;1.58;;;;;;;;;;5051247;28;20028;-76
2021/08/17 07:28:19;;;;;;;3.20;1.50;;;;;;;;;;5051293;28;20037;-77
2021/08/17 07:30:44;;;;;;;3.65;1.38;;;;;;;;;;5042955;28;20152;-77
2021/08/17 07:33:10;;;;;;;3.78;1.50;;;;;;;;;;5044285;28;20140;-79
2021/08/17 07:35:35;;;;;;;4.13;1.55;;;;;;;;;;5045690;28;20025;-77
2021/08/17 07:38:01;;;;;;;2.67;1.35;;;;;;;;;;5045213;28;20053;-76
2021/08/17 07:40:26;;;;;;;4.75;1.83;;;;;;;;;;5047371;28;20037;-76
2021/08/17 07:42:52;;;;;;;2.55;1.17;;;;;;;;;;5049459;28;20493;-79
2021/08/17 07:45:17;;;;;;;4.55;1.40;;;;;;;;;;5049890;28;20013;-76
2021/08/17 07:47:42;;;;;;;2.67;1.00;;;;;;;;;;5049437;28;20936;-76
2021/08/17 07:50:09;;;;;;;2.25;0.98;;;;;;;;;;5049691;28;20040;-76
2021/08/17 07:52:35;;;;;;;4.25;1.25;;;;;;;;;;5049361;28;20029;-76
2021/08/17 07:55:07;;;;;;;3.72;1.30;;;;;;;;;;5049650;28;20118;-76
2021/08/17 07:57:33;;;;;;;2.33;1.40;;;;;;;;;;5048988;28;20037;-76
2021/08/17 07:59:58;;;;;;;3.30;1.40;;;;;;;;;;5050155;28;20024;-76
2021/08/17 08:02:23;;;;;;;2.88;1.15;;;;;;;;;;5048313;28;20091;-75
2021/08/17 08:04:49;;;;;;;3.08;1.30;;;;;;;;;;5049075;28;20025;-76
2021/08/17 08:07:14;;;;;;;1.42;1.00;;;;;;;;;;5040946;28;20017;-76
2021/08/17 08:09:39;;;;;;;2.53;1.00;;;;;;;;;;5048886;28;20029;-76
2021/08/17 08:12:06;;;;;;;2.78;0.95;;;;;;;;;;5044862;28;20029;-79
2021/08/17 08:14:32;;;;;;;2.33;0.90;;;;;;;;;;5049255;28;20473;-76
2021/08/17 08:16:58;;;;;;;2.60;1.05;;;;;;;;;;5049187;28;20036;-76
2021/08/17 08:19:24;;;;;;;2.25;0.90;;;;;;;;;;5049215;28;20028;-76
2021/08/17 08:21:49;;;;;;;1.35;0.80;;;;;;;;;;5040294;28;20417;-76
2021/08/17 08:24:14;;;;;;;2.38;0.80;;;;;;;;;;5038894;28;20086;-77
2021/08/17 08:26:39;;;;;;;2.35;1.17;;;;;;;;;;5049501;28;20031;-76
2021/08/17 08:29:05;;;;;;;1.27;0.80;;;;;;;;;;5049566;28;20104;-76
2021/08/17 08:31:30;;;;;;;2.33;0.93;;;;;;;;;;5043389;28;20396;-76
2021/08/17 08:33:56;;;;;;;1.88;1.00;;;;;;;;;;5049294;28;20029;-76
2021/08/17 08:36:21;;;;;;;1.67;0.90;;;;;;;;;;5048941;28;20398;-77
2021/08/17 08:38:46;;;;;;;1.90;0.80;;;;;;;;;;5049680;28;20036;-76
2021/08/17 08:41:16;;;;;;;3.63;0.85;;;;;;;;;;5049365;28;20430;-76
2021/08/17 08:43:42;;;;;;;1.67;0.80;;;;;;;;;;5052490;28;20476;-76
2021/08/17 08:46:07;;;;;;;1.95;0.82;;;;;;;;;;5052753;28;20071;-77
2021/08/17 08:48:33;;;;;;;2.47;0.77;;;;;;;;;;5052595;28;20048;-77
2021/08/17 08:50:58;;;;;;;3.38;1.00;;;;;;;;;;5052672;28;20017;-76
2021/08/17 08:53:23;;;;;;;1.77;0.82;;;;;;;;;;5052734;28;20058;-77
2021/08/17 08:55:49;;;;;;;2.55;0.80;;;;;;;;;;5052385;28;20029;-79
2021/08/17 08:58:14;;;;;;;1.48;0.70;;;;;;;;;;5052251;28;20021;-77
2021/08/17 09:00:40;;;;;;;1.80;0.82;;;;;;;;;;5051959;28;20037;-76
2021/08/17 09:03:05;;;;;;;2.00;1.10;;;;;;;;;;5051964;28;20404;-76
2021/08/17 09:05:31;;;;;;;3.55;1.00;;;;;;;;;;5052115;28;20112;-79
2021/08/17 09:08:01;;;;;;;1.63;0.75;;;;;;;;;;5053088;28;20457;-76
2021/08/17 09:10:27;;;;;;;1.95;0.98;;;;;;;;;;5052592;28;20025;-76
2021/08/17 09:12:53;;;;;;;3.80;0.90;;;;;;;;;;5052019;28;20028;-76
2021/08/17 09:15:20;;;;;;;3.28;0.95;;;;;;;;;;5051411;28;20389;-76
2021/08/17 09:18:04;;;;;;;2.67;1.10;;;;;;;;;;5051680;28;20033;-77
2021/08/17 09:20:42;;;;;;;2.25;0.80;;;;;;;;;;5051887;28;20044;-77
2021/08/17 09:23:26;;;;;;;3.50;1.13;;;;;;;;;;5052032;28;20095;-76
2021/08/17 09:25:55;;;;;;;7.05;1.50;;;;;;;;;;5051643;28;20025;-77
2021/08/17 09:28:31;;;;;;;1.83;1.02;;;;;;;;;;5048304;28;20039;-80
2021/08/17 09:30:58;;;;;;;1.77;1.23;;;;;;;;;;5048460;28;20095;-77
2021/08/17 09:33:38;;;;;;;1.90;0.90;;;;;;;;;;5051343;28;20505;-77
2021/08/17 09:36:03;;;;;;;2.67;1.38;;;;;;;;;;5051584;28;20437;-75
2021/08/17 09:38:29;;;;;;;1.23;0.88;;;;;;;;;;5051763;28;20119;-75
2021/08/17 09:40:55;;;;;;;3.22;1.27;;;;;;;;;;5050335;28;20017;-75
2021/08/17 09:43:22;;;;;;;2.90;1.45;;;;;;;;;;5051325;28;20051;-75
2021/08/17 09:45:48;;;;;;;2.92;1.10;;;;;;;;;;5051920;28;20040;-75
2021/08/17 09:48:15;;;;;;;4.53;1.02;;;;;;;;;;5051584;28;20025;-75
2021/08/17 09:50:42;;;;;;;4.82;1.00;;;;;;;;;;5051923;28;20028;-75
2021/08/17 09:53:12;;;;;;;4.38;1.33;;;;;;;;;;5051103;28;20047;-75
2021/08/17 09:55:38;;;;;;;2.75;1.10;;;;;;;;;;5051993;28;20292;-76
2021/08/17 09:58:17;;;;;;;2.13;1.02;;;;;;;;;;5051535;28;20052;-75
2021/08/17 10:00:42;;;;;;;1.63;1.00;;;;;;;;;;5051242;28;20150;-75
2021/08/17 10:03:08;;;;;;;4.80;1.30;;;;;;;;;;5051104;28;20464;-76
2021/08/17 10:05:35;;;;;;;2.67;1.00;;;;;;;;;;5047986;28;20112;-76
2021/08/17 10:08:00;;;;;;;3.63;1.20;;;;;;;;;;5051583;28;20370;-75
2021/08/17 10:10:25;;;;;;;1.98;1.10;;;;;;;;;;5050684;28;20048;-74
2021/08/17 10:12:51;;;;;;;2.55;1.23;;;;;;;;;;5050610;28;20048;-74
2021/08/17 10:15:16;;;;;;;3.45;1.25;;;;;;;;;;5051231;28;20032;-76
2021/08/17 10:17:41;;;;;;;1.98;1.20;;;;;;;;;;5050914;28;20071;-76
2021/08/17 10:20:07;;;;;;;1.98;0.98;;;;;;;;;;5051469;28;20037;-75
2021/08/17 10:22:34;;;;;;;2.15;0.85;;;;;;;;;;5050461;28;20048;-75
2021/08/17 10:25:06;;;;;;;3.33;1.50;;;;;;;;;;5050383;28;20024;-76
2021/08/17 10:27:33;;;;;;;3.75;1.45;;;;;;;;;;5050516;28;20097;-74
2021/08/17 10:29:58;;;;;;;2.35;1.10;;;;;;;;;;5050869;28;20032;-75
2021/08/17 10:32:39;;;;;;;2.10;0.90;;;;;;;;;;5050057;28;20061;-74
2021/08/17 10:35:05;;;;;;;1.30;0.75;;;;;;;;;;5050700;28;20056;-74
2021/08/17 10:37:30;;;;;;;4.15;1.13;;;;;;;;;;5050379;28;20377;-76
2021/08/17 10:39:56;;;;;;;3.20;1.00;;;;;;;;;;5050351;28;20029;-76
2021/08/17 10:42:25;;;;;;;2.67;0.80;;;;;;;;;;5049370;28;20032;-77
2021/08/17 10:44:50;;;;;;;2.40;1.02;;;;;;;;;;5050526;28;20029;-77
2021/08/17 10:47:32;;;;;;;2.28;1.15;;;;;;;;;;5050986;28;20052;-76
2021/08/17 10:49:58;;;;;;;3.58;1.00;;;;;;;;;;5050424;28;20032;-77
2021/08/17 10:52:28;;;;;;;2.17;0.77;;;;;;;;;;5049725;28;20037;-77
2021/08/17 10:55:12;;;;;;;4.78;1.08;;;;;;;;;;5050286;28;20079;-80
2021/08/17 10:57:48;;;;;;;2.92;1.15;;;;;;;;;;5050289;28;20112;-76
2021/08/17 11:00:33;;;;;;;2.97;1.30;;;;;;;;;;5050103;28;20128;-76
2021/08/17 11:02:59;;;;;;;;;;;;;;;;;;5049495;28;20036;-76
2021/08/17 11:05:42;;;;;;;2.53;0.97;;;;;;;;;;5047343;28;19909;-77
2021/08/17 11:08:26;;;;;;;2.58;1.10;;;;;;;;;;5049548;28;20266;-76
2021/08/17 11:10:52;;;;;;;2.72;1.15;;;;;;;;;;5049917;28;20119;-76
2021/08/17 11:13:18;;;;;;;3.38;1.27;;;;;;;;;;5049113;28;20128;-76
2021/08/17 11:15:43;;;;;;;2.97;1.27;;;;;;;;;;5049945;28;20075;-76
2021/08/17 11:18:09;;;;;;;6.68;1.38;;;;;;;;;;5050018;28;20025;-76
2021/08/17 11:20:34;;;;;;;3.65;1.63;;;;;;;;;;5050016;28;20061;-76
2021/08/17 11:22:59;;;;;;;3.75;1.70;;;;;;;;;;5049077;28;20029;-75
2021/08/17 11:25:24;;;;;;;3.75;1.40;;;;;;;;;;5049584;28;20017;-77
2021/08/17 11:27:50;;;;;;;3.65;1.58;;;;;;;;;;5048978;28;20535;-76
2021/08/17 11:30:16;;;;;;;3.70;1.15;;;;;;;;;;5049104;28;20017;-76
2021/08/17 11:32:54;;;;;;;3.58;1.20;;;;;;;;;;5049385;28;20037;-79
2021/08/17 11:35:22;;;;;;;1.92;1.13;;;;;;;;;;5049505;28;20033;-77
2021/08/17 11:37:48;;;;;;;3.03;1.45;;;;;;;;;;5031564;28;20059;-75
2021/08/17 11:40:14;;;;;;;2.85;1.30;;;;;;;;;;5050227;28;20051;-77
2021/08/17 11:42:41;;;;;;;7.35;1.98;;;;;;;;;;5049602;28;20097;-76
2021/08/17 11:45:09;;;;;;;2.80;1.20;;;;;;;;;;5048845;28;20017;-77
2021/08/17 11:47:35;;;;;;;3.20;1.33;;;;;;;;;;5049840;28;20029;-77
2021/08/17 11:50:02;;;;;;;4.97;2.33;;;;;;;;;;5049304;28;20025;-76
2021/08/17 11:52:38;;;;;;;4.00;1.65;;;;;;;;;;5049623;28;20110;-76
2021/08/17 11:55:06;;;;;;;3.78;1.65;;;;;;;;;;5048925;28;20029;-76
2021/08/17 11:57:35;;;;;;;4.75;1.88;;;;;;;;;;5049280;28;20030;-75
2021/08/17 12:00:11;;;;;;;4.03;2.08;;;;;;;;;;5049140;28;20077;-76
2021/08/17 12:02:37;;;;;;;5.97;1.75;;;;;;;;;;5048508;28;20111;-76
2021/08/17 12:05:12;;;;;;;6.45;1.83;;;;;;;;;;5048770;28;20168;-76
2021/08/17 12:07:38;;;;;;;3.97;1.75;;;;;;;;;;5049081;28;20355;-76
2021/08/17 12:10:09;;;;;;;5.15;1.42;;;;;;;;;;5049372;28;20039;-75
2021/08/17 12:12:53;;;;;;;3.80;1.70;;;;;;;;;;5049288;28;20120;-76
2021/08/17 12:15:19;;;;;;;2.75;1.55;;;;;;;;;;5049034;28;20076;-76
2021/08/17 12:17:54;;;;;;;3.25;1.25;;;;;;;;;;5052074;28;20064;-75
2021/08/17 12:20:20;;;;;;;3.70;1.40;;;;;;;;;;5053011;28;20029;-76
2021/08/17 12:22:45;;;;;;;3.17;1.45;;;;;;;;;;5052827;28;20081;-75
2021/08/17 12:25:18;;;;;;;2.30;1.40;;;;;;;;;;5052514;28;20044;-76
2021/08/17 12:27:51;;;;;;;5.70;1.73;;;;;;;;;;5049558;28;20029;-76
2021/08/17 12:30:26;;;;;;;6.07;2.10;;;;;;;;;;5051965;28;20033;-76
2021/08/17 12:32:53;;;;;;;3.72;1.50;;;;;;;;;;5051829;28;20404;-76
2021/08/17 12:35:24;;;;;;;3.22;1.65;;;;;;;;;;5042373;28;20037;-76
2021/08/17 12:37:49;;;;;;;4.65;1.60;;;;;;;;;;5049953;28;20107;-77
2021/08/17 12:40:15;;;;;;;3.47;1.50;;;;;;;;;;5050782;28;20608;-78
2021/08/17 12:42:41;;;;;;;3.30;1.42;;;;;;;;;;5049850;28;20033;-76
2021/08/17 12:45:07;;;;;;;2.53;1.40;;;;;;;;;;5049996;28;20028;-80
2021/08/17 12:47:32;;;;;;;3.63;1.40;;;;;;;;;;5049936;28;20033;-78
2021/08/17 12:50:02;;;;;;;3.92;1.38;;;;;;;;;;5049648;28;20043;-77
2021/08/17 12:52:33;;;;;;;2.47;1.00;;;;;;;;;;5049373;28;20109;-77
2021/08/17 12:55:12;;;;;;;2.17;1.00;;;;;;;;;;5051019;28;20029;-77
2021/08/17 12:57:40;;;;;;;2.22;1.27;;;;;;;;;;5051109;28;20033;-76
2021/08/17 13:00:07;;;;;;;2.38;1.00;;;;;;;;;;5051440;28;20029;-76
2021/08/17 13:02:32;;;;;;;3.75;1.52;;;;;;;;;;5050704;28;20060;-76
2021/08/17 13:04:57;;;;;;;2.63;1.23;;;;;;;;;;5050657;28;20059;-77
2021/08/17 13:07:23;;;;;;;3.13;1.55;;;;;;;;;;5050585;28;20123;-76
2021/08/17 13:09:48;;;;;;;4.07;1.45;;;;;;;;;;5051352;28;20041;-76
2021/08/17 13:12:14;;;;;;;5.97;1.50;;;;;;;;;;5049942;28;20018;-77
2021/08/17 13:14:39;;;;;;;4.47;1.27;;;;;;;;;;5051183;28;20036;-76
2021/08/17 13:17:05;;;;;;;4.28;1.55;;;;;;;;;;5051155;28;20075;-75
2021/08/17 13:19:30;;;;;;;5.03;1.50;;;;;;;;;;5050628;28;20021;-77
2021/08/17 13:21:56;;;;;;;5.05;1.45;;;;;;;;;;5050058;28;20120;-76
2021/08/17 13:24:21;;;;;;;4.15;1.35;;;;;;;;;;5049500;28;20043;-76
2021/08/17 13:26:46;;;;;;;5.30;1.40;;;;;;;;;;5046508;28;20028;-78
2021/08/17 13:29:12;;;;;;;4.20;1.13;;;;;;;;;;5049581;28;20036;-75
2021/08/17 13:31:37;;;;;;;4.13;1.33;;;;;;;;;;5049787;28;20481;-76
2021/08/17 13:34:02;;;;;;;4.80;1.27;;;;;;;;;;5050142;28;20028;-77
2021/08/17 13:36:28;;;;;;;4.70;1.48;;;;;;;;;;5051176;28;20106;-76
2021/08/17 13:38:53;;;;;;;5.28;1.65;;;;;;;;;;5050633;28;20033;-77
2021/08/17 13:41:18;;;;;;;2.28;1.15;;;;;;;;;;5051707;28;20032;-76
2021/08/17 13:43:44;;;;;;;4.75;1.55;;;;;;;;;;5051337;28;20571;-76
2021/08/17 13:46:10;;;;;;;7.57;1.60;;;;;;;;;;5050892;28;20041;-75
2021/08/17 13:48:35;;;;;;;5.38;2.22;;;;;;;;;;5050421;28;20028;-75
2021/08/17 13:51:00;;;;;;;6.75;1.35;;;;;;;;;;5051182;28;20099;-75
2021/08/17 13:53:25;;;;;;;4.55;1.45;;;;;;;;;;5050898;28;20033;-76
2021/08/17 13:55:51;;;;;;;4.45;1.15;;;;;;;;;;5050992;28;20355;-78
2021/08/17 13:58:16;;;;;;;4.70;1.60;;;;;;;;;;5050297;28;20071;-75
2021/08/17 14:00:42;;;;;;;6.10;1.45;;;;;;;;;;5050840;28;20037;-75
2021/08/17 14:03:07;;;;;;;8.02;1.77;;;;;;;;;;5032556;28;20021;-75
2021/08/17 14:05:33;;;;;;;5.05;1.33;;;;;;;;;;5050399;28;20461;-76
2021/08/17 14:07:59;;;;;;;6.60;1.40;;;;;;;;;;5050042;28;20108;-78
2021/08/17 14:10:24;;;;;;;5.20;1.20;;;;;;;;;;5051066;28;20113;-76
2021/08/17 14:12:49;;;;;;;4.72;1.52;;;;;;;;;;5032195;28;20172;-76
2021/08/17 14:15:15;;;;;;;3.65;1.42;;;;;;;;;;5050316;28;20469;-76
2021/08/17 14:17:40;;;;;;;3.40;1.55;;;;;;;;;;5049599;28;20079;-77
2021/08/17 14:20:06;;;;;;;8.50;1.70;;;;;;;;;;5050361;28;20025;-76
2021/08/17 14:22:31;;;;;;;2.90;1.10;;;;;;;;;;5050910;28;20029;-75
2021/08/17 14:24:57;;;;;;;2.92;1.02;;;;;;;;;;5050305;28;20051;-75
2021/08/17 14:27:22;;;;;;;5.72;1.17;;;;;;;;;;5050120;28;20032;-75
2021/08/17 14:29:47;;;;;;;4.82;1.10;;;;;;;;;;5049486;28;20037;-76
2021/08/17 14:32:13;;;;;;;3.63;1.25;;;;;;;;;;5049729;28;20091;-75
2021/08/17 14:34:39;;;;;;;2.70;1.00;;;;;;;;;;5051063;28;20457;-76
2021/08/17 14:37:05;;;;;;;4.07;1.20;;;;;;;;;;5046182;28;20108;-76
2021/08/17 14:39:30;;;;;;;5.38;1.30;;;;;;;;;;5049056;28;20119;-76